sensor_id;sensor_type;location;lat;lon;timestamp;pressure;altitude;pressure_sealevel;temperature
73662;BMP280;61956;52.540;13.382;2023-03-23T00:02:16;97711.41;;;13.19
73662;BMP280;61956;52.540;13.382;2023-03-23T00:04:45;98261.00;;;13.21
73662;BMP280;61956;52.540;13.382;2023-03-23T00:07:15;97851.16;;;13.19
73662;BMP280;61956;52.540;13.382;2023-03-23T00:09:50;97334.97;;;13.11
73662;BMP280;61956;52.540;13.382;2023-03-23T00:12:20;97462.16;;;13.13
73662;BMP280;61956;52.540;13.382;2023-03-23T00:14:58;97457.25;;;13.11
73662;BMP280;61956;52.540;13.382;2023-03-23T00:17:29;96112.38;;;12.97
73662;BMP280;61956;52.540;13.382;2023-03-23T00:20:01;96296.56;;;12.95
73662;BMP280;61956;52.540;13.382;2023-03-23T00:22:35;95836.03;;;12.89
73662;BMP280;61956;52.540;13.382;2023-03-23T00:25:09;94955.09;;;12.78
73662;BMP280;61956;52.540;13.382;2023-03-23T00:27:38;95414.63;;;12.76
73662;BMP280;61956;52.540;13.382;2023-03-23T00:30:10;95553.41;;;12.75
73662;BMP280;61956;52.540;13.382;2023-03-23T00:32:40;96501.38;;;12.82
73662;BMP280;61956;52.540;13.382;2023-03-23T00:35:09;95423.16;;;12.73
73662;BMP280;61956;52.540;13.382;2023-03-23T00:37:38;95376.00;;;12.68
73662;BMP280;61956;52.540;13.382;2023-03-23T00:40:12;95886.38;;;12.70
73662;BMP280;61956;52.540;13.382;2023-03-23T00:42:42;95743.09;;;12.68
73662;BMP280;61956;52.540;13.382;2023-03-23T00:45:11;95280.25;;;12.63
73662;BMP280;61956;52.540;13.382;2023-03-23T00:47:41;96501.56;;;12.70
73662;BMP280;61956;52.540;13.382;2023-03-23T00:50:13;96680.88;;;12.70
73662;BMP280;61956;52.540;13.382;2023-03-23T00:52:43;96250.16;;;12.67
73662;BMP280;61956;52.540;13.382;2023-03-23T00:55:15;96233.06;;;12.66
73662;BMP280;61956;52.540;13.382;2023-03-23T00:57:44;95655.06;;;12.59
73662;BMP280;61956;52.540;13.382;2023-03-23T01:00:16;95700.69;;;12.57
73662;BMP280;61956;52.540;13.382;2023-03-23T01:02:46;96589.03;;;12.62
73662;BMP280;61956;52.540;13.382;2023-03-23T01:05:17;96777.31;;;12.65
73662;BMP280;61956;52.540;13.382;2023-03-23T01:07:46;96957.06;;;12.67
73662;BMP280;61956;52.540;13.382;2023-03-23T01:10:19;95436.50;;;12.54
73662;BMP280;61956;52.540;13.382;2023-03-23T01:12:48;95731.88;;;12.53
73662;BMP280;61956;52.540;13.382;2023-03-23T01:15:18;94684.56;;;12.42
73662;BMP280;61956;52.540;13.382;2023-03-23T01:17:48;95162.69;;;12.44
73662;BMP280;61956;52.540;13.382;2023-03-23T01:20:17;95227.25;;;12.42
73662;BMP280;61956;52.540;13.382;2023-03-23T01:22:47;94620.44;;;12.35
73662;BMP280;61956;52.540;13.382;2023-03-23T01:25:19;95322.94;;;12.37
73662;BMP280;61956;52.540;13.382;2023-03-23T01:27:48;96046.06;;;12.43
73662;BMP280;61956;52.540;13.382;2023-03-23T01:30:17;95970.00;;;12.42
73662;BMP280;61956;52.540;13.382;2023-03-23T01:32:47;95955.16;;;12.43
73662;BMP280;61956;52.540;13.382;2023-03-23T01:35:16;96369.69;;;12.44
73662;BMP280;61956;52.540;13.382;2023-03-23T01:37:47;96903.13;;;12.48
73662;BMP280;61956;52.540;13.382;2023-03-23T01:40:19;95913.97;;;12.41
73662;BMP280;61956;52.540;13.382;2023-03-23T01:42:49;95733.63;;;12.39
73662;BMP280;61956;52.540;13.382;2023-03-23T01:45:27;95478.38;;;12.34
73662;BMP280;61956;52.540;13.382;2023-03-23T01:48:09;96197.78;;;12.38
73662;BMP280;61956;52.540;13.382;2023-03-23T01:50:50;96620.53;;;12.41
73662;BMP280;61956;52.540;13.382;2023-03-23T01:53:26;96094.66;;;12.39
73662;BMP280;61956;52.540;13.382;2023-03-23T01:56:04;95873.84;;;12.35
73662;BMP280;61956;52.540;13.382;2023-03-23T01:58:38;97130.19;;;12.43
73662;BMP280;61956;52.540;13.382;2023-03-23T02:01:10;96867.00;;;12.43
73662;BMP280;61956;52.540;13.382;2023-03-23T02:03:43;97133.97;;;12.46
73662;BMP280;61956;52.540;13.382;2023-03-23T02:06:15;97865.19;;;12.50
73662;BMP280;61956;52.540;13.382;2023-03-23T02:09:20;97364.94;;;12.47
73662;BMP280;61956;52.540;13.382;2023-03-23T02:11:53;97136.25;;;12.47
73662;BMP280;61956;52.540;13.382;2023-03-23T02:14:24;96827.69;;;12.44
73662;BMP280;61956;52.540;13.382;2023-03-23T02:17:02;96733.00;;;12.42
73662;BMP280;61956;52.540;13.382;2023-03-23T02:19:50;97643.03;;;12.47
73662;BMP280;61956;52.540;13.382;2023-03-23T02:26:11;98205.94;;;12.53
73662;BMP280;61956;52.540;13.382;2023-03-23T02:32:16;99336.72;;;12.65
73662;BMP280;61956;52.540;13.382;2023-03-23T02:35:01;99390.81;;;12.68
73662;BMP280;61956;52.540;13.382;2023-03-23T02:37:39;99320.31;;;12.70
73662;BMP280;61956;52.540;13.382;2023-03-23T02:40:17;99598.94;;;12.73
73662;BMP280;61956;52.540;13.382;2023-03-23T02:42:52;99744.38;;;12.75
73662;BMP280;61956;52.540;13.382;2023-03-23T02:45:27;99882.53;;;12.78
73662;BMP280;61956;52.540;13.382;2023-03-23T02:48:03;99652.75;;;12.78
73662;BMP280;61956;52.540;13.382;2023-03-23T02:50:38;99177.44;;;12.73
73662;BMP280;61956;52.540;13.382;2023-03-23T02:53:13;98489.75;;;12.69
73662;BMP280;61956;52.540;13.382;2023-03-23T02:55:48;98315.31;;;12.66
73662;BMP280;61956;52.540;13.382;2023-03-23T02:58:22;98584.72;;;12.67
73662;BMP280;61956;52.540;13.382;2023-03-23T03:00:53;98495.81;;;12.65
73662;BMP280;61956;52.540;13.382;2023-03-23T03:03:27;98310.72;;;12.63
73662;BMP280;61956;52.540;13.382;2023-03-23T03:06:06;98331.53;;;12.63
73662;BMP280;61956;52.540;13.382;2023-03-23T03:08:46;98633.66;;;12.65
73662;BMP280;61956;52.540;13.382;2023-03-23T03:11:23;98119.66;;;12.60
73662;BMP280;61956;52.540;13.382;2023-03-23T03:13:57;98341.44;;;12.60
73662;BMP280;61956;52.540;13.382;2023-03-23T03:16:36;98659.94;;;12.63
73662;BMP280;61956;52.540;13.382;2023-03-23T03:19:13;98691.94;;;12.64
73662;BMP280;61956;52.540;13.382;2023-03-23T03:21:52;98106.97;;;12.58
73662;BMP280;61956;52.540;13.382;2023-03-23T03:24:40;98445.47;;;12.60
73662;BMP280;61956;52.540;13.382;2023-03-23T03:27:14;98617.88;;;12.61
73662;BMP280;61956;52.540;13.382;2023-03-23T03:29:55;98629.31;;;12.60
73662;BMP280;61956;52.540;13.382;2023-03-23T03:32:37;98986.59;;;12.64
73662;BMP280;61956;52.540;13.382;2023-03-23T03:35:12;99055.00;;;12.65
73662;BMP280;61956;52.540;13.382;2023-03-23T03:37:44;98796.25;;;12.62
73662;BMP280;61956;52.540;13.382;2023-03-23T03:40:16;98322.47;;;12.60
73662;BMP280;61956;52.540;13.382;2023-03-23T03:42:47;97512.13;;;12.52
73662;BMP280;61956;52.540;13.382;2023-03-23T03:45:18;97157.34;;;12.46
73662;BMP280;61956;52.540;13.382;2023-03-23T03:47:49;95920.19;;;12.33
73662;BMP280;61956;52.540;13.382;2023-03-23T03:50:18;95911.63;;;12.29
73662;BMP280;61956;52.540;13.382;2023-03-23T03:52:50;95984.69;;;12.27
73662;BMP280;61956;52.540;13.382;2023-03-23T03:55:19;95966.44;;;12.24
73662;BMP280;61956;52.540;13.382;2023-03-23T03:57:50;96053.25;;;12.23
73662;BMP280;61956;52.540;13.382;2023-03-23T04:00:50;96080.69;;;12.20
73662;BMP280;61956;52.540;13.382;2023-03-23T04:03:26;96609.75;;;12.23
73662;BMP280;61956;52.540;13.382;2023-03-23T04:06:11;96634.97;;;12.23
73662;BMP280;61956;52.540;13.382;2023-03-23T04:08:44;96927.38;;;12.24
73662;BMP280;61956;52.540;13.382;2023-03-23T04:11:14;97003.47;;;12.24
73662;BMP280;61956;52.540;13.382;2023-03-23T04:13:43;97298.22;;;12.27
73662;BMP280;61956;52.540;13.382;2023-03-23T04:16:19;97115.19;;;12.24
73662;BMP280;61956;52.540;13.382;2023-03-23T04:18:49;96743.66;;;12.21
73662;BMP280;61956;52.540;13.382;2023-03-23T04:21:22;96817.47;;;12.20
73662;BMP280;61956;52.540;13.382;2023-03-23T04:23:57;96716.16;;;12.20
73662;BMP280;61956;52.540;13.382;2023-03-23T04:26:29;97399.72;;;12.22
73662;BMP280;61956;52.540;13.382;2023-03-23T04:29:06;97388.25;;;12.23
73662;BMP280;61956;52.540;13.382;2023-03-23T04:31:36;97422.78;;;12.23
73662;BMP280;61956;52.540;13.382;2023-03-23T04:34:17;97368.56;;;12.22
73662;BMP280;61956;52.540;13.382;2023-03-23T04:36:50;97441.28;;;12.22
73662;BMP280;61956;52.540;13.382;2023-03-23T04:39:27;97296.91;;;12.21
73662;BMP280;61956;52.540;13.382;2023-03-23T04:41:59;96768.00;;;12.16
73662;BMP280;61956;52.540;13.382;2023-03-23T04:44:52;96322.38;;;12.11
73662;BMP280;61956;52.540;13.382;2023-03-23T04:47:33;95344.41;;;12.01
73662;BMP280;61956;52.540;13.382;2023-03-23T04:50:11;95458.22;;;11.99
73662;BMP280;61956;52.540;13.382;2023-03-23T04:52:43;95271.38;;;11.96
73662;BMP280;61956;52.540;13.382;2023-03-23T04:55:18;95201.34;;;11.92
73662;BMP280;61956;52.540;13.382;2023-03-23T04:57:54;95077.50;;;11.89
73662;BMP280;61956;52.540;13.382;2023-03-23T05:00:52;95280.25;;;11.88
73662;BMP280;61956;52.540;13.382;2023-03-23T05:03:23;94761.06;;;11.82
73662;BMP280;61956;52.540;13.382;2023-03-23T05:05:55;94399.84;;;11.78
73662;BMP280;61956;52.540;13.382;2023-03-23T05:08:26;94100.25;;;11.73
73662;BMP280;61956;52.540;13.382;2023-03-23T05:11:00;94620.31;;;11.74
73662;BMP280;61956;52.540;13.382;2023-03-23T05:13:34;94875.25;;;11.75
73662;BMP280;61956;52.540;13.382;2023-03-23T05:16:04;94465.88;;;11.70
73662;BMP280;61956;52.540;13.382;2023-03-23T05:18:36;95046.78;;;11.73
73662;BMP280;61956;52.540;13.382;2023-03-23T05:21:08;94365.53;;;11.67
73662;BMP280;61956;52.540;13.382;2023-03-23T05:23:43;94273.72;;;11.64
73662;BMP280;61956;52.540;13.382;2023-03-23T05:26:21;94900.84;;;11.66
73662;BMP280;61956;52.540;13.382;2023-03-23T05:28:57;94599.66;;;11.63
73662;BMP280;61956;52.540;13.382;2023-03-23T05:31:49;93955.69;;;11.57
73662;BMP280;61956;52.540;13.382;2023-03-23T05:34:22;94143.47;;;11.56
73662;BMP280;61956;52.540;13.382;2023-03-23T05:36:56;94280.53;;;11.54
73662;BMP280;61956;52.540;13.382;2023-03-23T05:39:35;94199.09;;;11.52
73662;BMP280;61956;52.540;13.382;2023-03-23T05:42:21;94746.03;;;11.55
73662;BMP280;61956;52.540;13.382;2023-03-23T05:45:00;94259.84;;;11.51
73662;BMP280;61956;52.540;13.382;2023-03-23T05:47:29;93952.16;;;11.48
73662;BMP280;61956;52.540;13.382;2023-03-23T05:50:07;94206.16;;;11.48
73662;BMP280;61956;52.540;13.382;2023-03-23T05:52:39;94636.81;;;11.50
73662;BMP280;61956;52.540;13.382;2023-03-23T05:55:11;94118.13;;;11.44
73662;BMP280;61956;52.540;13.382;2023-03-23T05:57:48;94734.22;;;11.47
73662;BMP280;61956;52.540;13.382;2023-03-23T06:00:28;93927.13;;;11.41
73662;BMP280;61956;52.540;13.382;2023-03-23T06:03:16;93929.41;;;11.39
73662;BMP280;61956;52.540;13.382;2023-03-23T06:05:56;93272.19;;;11.32
73662;BMP280;61956;52.540;13.382;2023-03-23T06:08:33;93301.53;;;11.29
73662;BMP280;61956;52.540;13.382;2023-03-23T06:11:04;93890.66;;;11.32
73662;BMP280;61956;52.540;13.382;2023-03-23T06:13:41;93738.19;;;11.30
73662;BMP280;61956;52.540;13.382;2023-03-23T06:16:11;93597.25;;;11.28
73662;BMP280;61956;52.540;13.382;2023-03-23T06:18:56;94107.97;;;11.30
73662;BMP280;61956;52.540;13.382;2023-03-23T06:21:34;94412.63;;;11.31
73662;BMP280;61956;52.540;13.382;2023-03-23T06:24:12;94210.16;;;11.29
73662;BMP280;61956;52.540;13.382;2023-03-23T06:26:41;94298.25;;;11.29
73662;BMP280;61956;52.540;13.382;2023-03-23T06:29:18;94802.09;;;11.31
73662;BMP280;61956;52.540;13.382;2023-03-23T06:31:57;95002.00;;;11.33
73662;BMP280;61956;52.540;13.382;2023-03-23T06:34:31;95178.63;;;11.35
73662;BMP280;61956;52.540;13.382;2023-03-23T06:37:33;95116.81;;;11.34
73662;BMP280;61956;52.540;13.382;2023-03-23T06:40:12;95052.00;;;11.34
73662;BMP280;61956;52.540;13.382;2023-03-23T06:42:50;95493.09;;;11.36
73662;BMP280;61956;52.540;13.382;2023-03-23T06:45:40;95357.50;;;11.35
73662;BMP280;61956;52.540;13.382;2023-03-23T06:48:32;95619.34;;;11.35
73662;BMP280;61956;52.540;13.382;2023-03-23T06:51:04;96235.84;;;11.42
73662;BMP280;61956;52.540;13.382;2023-03-23T06:53:37;96212.50;;;11.42
73662;BMP280;61956;52.540;13.382;2023-03-23T06:56:09;96751.75;;;11.47
73662;BMP280;61956;52.540;13.382;2023-03-23T06:58:40;96052.47;;;11.43
73662;BMP280;61956;52.540;13.382;2023-03-23T07:01:13;96413.41;;;11.45
73662;BMP280;61956;52.540;13.382;2023-03-23T07:03:55;96441.59;;;11.46
73662;BMP280;61956;52.540;13.382;2023-03-23T07:06:36;96366.72;;;11.45
73662;BMP280;61956;52.540;13.382;2023-03-23T07:09:08;97194.78;;;11.50
73662;BMP280;61956;52.540;13.382;2023-03-23T07:11:37;97225.59;;;11.52
73662;BMP280;61956;52.540;13.382;2023-03-23T07:14:15;96651.03;;;11.49
73662;BMP280;61956;52.540;13.382;2023-03-23T07:16:48;97261.63;;;11.53
73662;BMP280;61956;52.540;13.382;2023-03-23T07:19:19;96978.03;;;11.53
73662;BMP280;61956;52.540;13.382;2023-03-23T07:21:49;97454.09;;;11.55
73662;BMP280;61956;52.540;13.382;2023-03-23T07:24:21;97528.25;;;11.56
73662;BMP280;61956;52.540;13.382;2023-03-23T07:27:01;97150.81;;;11.54
73662;BMP280;61956;52.540;13.382;2023-03-23T07:29:30;97549.78;;;11.57
73662;BMP280;61956;52.540;13.382;2023-03-23T07:32:11;98166.66;;;11.61
73662;BMP280;61956;52.540;13.382;2023-03-23T07:34:41;98254.31;;;11.65
73662;BMP280;61956;52.540;13.382;2023-03-23T07:37:18;98168.63;;;11.65
73662;BMP280;61956;52.540;13.382;2023-03-23T07:39:49;98335.28;;;11.67
73662;BMP280;61956;52.540;13.382;2023-03-23T07:42:19;99095.03;;;11.73
73662;BMP280;61956;52.540;13.382;2023-03-23T07:44:55;99662.06;;;11.78
73662;BMP280;61956;52.540;13.382;2023-03-23T07:47:27;99921.94;;;11.83
73662;BMP280;61956;52.540;13.382;2023-03-23T07:49:56;100534.03;;;11.91
73662;BMP280;61956;52.540;13.382;2023-03-23T07:52:36;101048.66;;;11.98
73662;BMP280;61956;52.540;13.382;2023-03-23T07:55:09;101427.41;;;12.04
73662;BMP280;61956;52.540;13.382;2023-03-23T07:57:55;101621.63;;;12.10
73662;BMP280;61956;52.540;13.382;2023-03-23T08:00:24;101703.44;;;12.14
73662;BMP280;61956;52.540;13.382;2023-03-23T08:02:57;101182.66;;;12.12
73662;BMP280;61956;52.540;13.382;2023-03-23T08:06:04;100678.56;;;12.09
73662;BMP280;61956;52.540;13.382;2023-03-23T08:08:49;100745.16;;;12.10
73662;BMP280;61956;52.540;13.382;2023-03-23T08:11:39;100926.75;;;12.13
73662;BMP280;61956;52.540;13.382;2023-03-23T08:14:34;101409.63;;;12.19
73662;BMP280;61956;52.540;13.382;2023-03-23T08:17:24;101453.63;;;12.21
73662;BMP280;61956;52.540;13.382;2023-03-23T08:20:19;101332.94;;;12.22
73662;BMP280;61956;52.540;13.382;2023-03-23T08:22:56;101085.00;;;12.21
73662;BMP280;61956;52.540;13.382;2023-03-23T08:25:46;101085.81;;;12.22
73662;BMP280;61956;52.540;13.382;2023-03-23T08:28:26;101257.06;;;12.25
73662;BMP280;61956;52.540;13.382;2023-03-23T08:31:21;100874.09;;;12.23
73662;BMP280;61956;52.540;13.382;2023-03-23T08:34:09;100690.47;;;12.22
73662;BMP280;61956;52.540;13.382;2023-03-23T08:37:10;101039.34;;;12.25
73662;BMP280;61956;52.540;13.382;2023-03-23T08:40:07;102049.41;;;12.34
73662;BMP280;61956;52.540;13.382;2023-03-23T08:42:58;102990.38;;;12.45
73662;BMP280;61956;52.540;13.382;2023-03-23T08:46:00;103734.84;;;12.56
73662;BMP280;61956;52.540;13.382;2023-03-23T08:48:55;104493.72;;;12.66
73662;BMP280;61956;52.540;13.382;2023-03-23T08:51:42;104238.84;;;12.70
73662;BMP280;61956;52.540;13.382;2023-03-23T08:54:39;103617.06;;;12.69
73662;BMP280;61956;52.540;13.382;2023-03-23T08:57:31;103291.44;;;12.69
73662;BMP280;61956;52.540;13.382;2023-03-23T09:00:20;103958.56;;;12.75
73662;BMP280;61956;52.540;13.382;2023-03-23T09:03:05;104778.56;;;12.86
73662;BMP280;61956;52.540;13.382;2023-03-23T09:05:58;105874.50;;;12.99
73662;BMP280;61956;52.540;13.382;2023-03-23T09:08:46;106097.28;;;13.09
73662;BMP280;61956;52.540;13.382;2023-03-23T09:11:19;105029.19;;;13.02
73662;BMP280;61956;52.540;13.382;2023-03-23T09:13:48;104756.97;;;13.03
73662;BMP280;61956;52.540;13.382;2023-03-23T09:16:18;104242.59;;;13.01
73662;BMP280;61956;52.540;13.382;2023-03-23T09:18:47;103956.94;;;12.99
73662;BMP280;61956;52.540;13.382;2023-03-23T09:21:17;105531.69;;;13.13
73662;BMP280;61956;52.540;13.382;2023-03-23T09:23:47;105791.19;;;13.20
73662;BMP280;61956;52.540;13.382;2023-03-23T09:26:20;106136.13;;;13.25
73662;BMP280;61956;52.540;13.382;2023-03-23T09:28:50;106266.19;;;13.31
73662;BMP280;61956;52.540;13.382;2023-03-23T09:31:19;107472.59;;;13.46
73662;BMP280;61956;52.540;13.382;2023-03-23T09:33:52;108713.84;;;13.65
73662;BMP280;61956;52.540;13.382;2023-03-23T09:36:22;109196.25;;;13.78
73662;BMP280;61956;52.540;13.382;2023-03-23T09:38:55;109270.13;;;13.88
73662;BMP280;61956;52.540;13.382;2023-03-23T09:41:47;108568.28;;;13.90
73662;BMP280;61956;52.540;13.382;2023-03-23T09:44:42;108721.53;;;13.96
73662;BMP280;61956;52.540;13.382;2023-03-23T09:47:28;108106.03;;;13.98
73662;BMP280;61956;52.540;13.382;2023-03-23T09:50:10;108715.94;;;14.06
73662;BMP280;61956;52.540;13.382;2023-03-23T09:52:46;109493.44;;;14.21
73662;BMP280;61956;52.540;13.382;2023-03-23T09:55:20;109560.44;;;14.29
73662;BMP280;61956;52.540;13.382;2023-03-23T09:57:57;110716.63;;;14.46
73662;BMP280;61956;52.540;13.382;2023-03-23T10:00:32;110853.66;;;14.58
73662;BMP280;61956;52.540;13.382;2023-03-23T10:03:09;110885.97;;;14.67
73662;BMP280;61956;52.540;13.382;2023-03-23T10:05:45;109139.00;;;14.61
73662;BMP280;61956;52.540;13.382;2023-03-23T10:08:16;109035.13;;;14.61
73662;BMP280;61956;52.540;13.382;2023-03-23T10:10:58;107718.00;;;14.51
73662;BMP280;61956;52.540;13.382;2023-03-23T10:13:46;108127.00;;;14.55
73662;BMP280;61956;52.540;13.382;2023-03-23T10:16:27;108587.34;;;14.63
73662;BMP280;61956;52.540;13.382;2023-03-23T10:19:03;108102.28;;;14.61
73662;BMP280;61956;52.540;13.382;2023-03-23T10:21:43;108509.41;;;14.69
73662;BMP280;61956;52.540;13.382;2023-03-23T10:24:20;109200.47;;;14.77
73662;BMP280;61956;52.540;13.382;2023-03-23T10:26:59;110089.13;;;14.91
73662;BMP280;61956;52.540;13.382;2023-03-23T10:29:45;110004.25;;;14.98
73662;BMP280;61956;52.540;13.382;2023-03-23T10:32:34;110087.97;;;15.06
73662;BMP280;61956;52.540;13.382;2023-03-23T10:35:13;109940.22;;;15.12
73662;BMP280;61956;52.540;13.382;2023-03-23T10:37:50;110813.13;;;15.25
73662;BMP280;61956;52.540;13.382;2023-03-23T10:40:27;110650.50;;;15.30
73662;BMP280;61956;52.540;13.382;2023-03-23T10:43:01;110578.75;;;15.37
73662;BMP280;61956;52.540;13.382;2023-03-23T10:45:34;110179.22;;;15.37
73662;BMP280;61956;52.540;13.382;2023-03-23T10:48:13;108860.66;;;15.29
73662;BMP280;61956;52.540;13.382;2023-03-23T10:50:49;108978.56;;;15.30
73662;BMP280;61956;52.540;13.382;2023-03-23T10:53:28;108719.13;;;15.29
73662;BMP280;61956;52.540;13.382;2023-03-23T10:56:02;108746.94;;;15.33
73662;BMP280;61956;52.540;13.382;2023-03-23T10:58:34;108589.75;;;15.31
73662;BMP280;61956;52.540;13.382;2023-03-23T11:01:11;108371.28;;;15.32
73662;BMP280;61956;52.540;13.382;2023-03-23T11:03:43;107785.50;;;15.27
73662;BMP280;61956;52.540;13.382;2023-03-23T11:06:23;107700.81;;;15.26
73662;BMP280;61956;52.540;13.382;2023-03-23T11:08:57;107684.31;;;15.24
73662;BMP280;61956;52.540;13.382;2023-03-23T11:11:31;108043.03;;;15.29
73662;BMP280;61956;52.540;13.382;2023-03-23T11:14:18;108479.47;;;15.36
73662;BMP280;61956;52.540;13.382;2023-03-23T11:16:57;108650.47;;;15.41
73662;BMP280;61956;52.540;13.382;2023-03-23T11:19:29;107209.78;;;15.30
73662;BMP280;61956;52.540;13.382;2023-03-23T11:22:07;107276.28;;;15.28
73662;BMP280;61956;52.540;13.382;2023-03-23T11:24:44;107670.78;;;15.32
73662;BMP280;61956;52.540;13.382;2023-03-23T11:27:16;109365.13;;;15.48
73662;BMP280;61956;52.540;13.382;2023-03-23T11:29:49;110722.69;;;15.71
73662;BMP280;61956;52.540;13.382;2023-03-23T11:32:26;110034.25;;;15.72
73662;BMP280;61956;52.540;13.382;2023-03-23T11:34:59;109987.75;;;15.77
73662;BMP280;61956;52.540;13.382;2023-03-23T11:37:33;110998.97;;;15.91
73662;BMP280;61956;52.540;13.382;2023-03-23T11:40:15;110234.16;;;15.92
73662;BMP280;61956;52.540;13.382;2023-03-23T11:42:48;110022.41;;;15.93
73662;BMP280;61956;52.540;13.382;2023-03-23T11:45:32;110082.66;;;15.97
73662;BMP280;61956;52.540;13.382;2023-03-23T11:48:13;110685.47;;;16.07
73662;BMP280;61956;52.540;13.382;2023-03-23T11:50:51;110746.69;;;16.14
73662;BMP280;61956;52.540;13.382;2023-03-23T11:53:40;110227.56;;;16.15
73662;BMP280;61956;52.540;13.382;2023-03-23T11:56:23;109701.59;;;16.14
73662;BMP280;61956;52.540;13.382;2023-03-23T11:58:56;109645.56;;;16.14
73662;BMP280;61956;52.540;13.382;2023-03-23T12:01:46;109290.38;;;16.12
73662;BMP280;61956;52.540;13.382;2023-03-23T12:04:33;109456.56;;;16.14
73662;BMP280;61956;52.540;13.382;2023-03-23T12:07:20;109286.75;;;16.16
73662;BMP280;61956;52.540;13.382;2023-03-23T12:10:05;107567.13;;;15.99
73662;BMP280;61956;52.540;13.382;2023-03-23T12:12:53;107721.19;;;15.96
73662;BMP280;61956;52.540;13.382;2023-03-23T12:15:46;107449.56;;;15.92
73662;BMP280;61956;52.540;13.382;2023-03-23T12:18:29;107865.50;;;15.94
73662;BMP280;61956;52.540;13.382;2023-03-23T12:21:14;108617.97;;;16.03
73662;BMP280;61956;52.540;13.382;2023-03-23T12:23:53;108324.97;;;16.04
73662;BMP280;61956;52.540;13.382;2023-03-23T12:26:29;108580.19;;;16.07
73662;BMP280;61956;52.540;13.382;2023-03-23T12:29:21;107995.28;;;16.04
73662;BMP280;61956;52.540;13.382;2023-03-23T12:32:17;108041.72;;;16.02
73662;BMP280;61956;52.540;13.382;2023-03-23T12:35:04;108760.13;;;16.13
73662;BMP280;61956;52.540;13.382;2023-03-23T12:37:55;108277.44;;;16.10
73662;BMP280;61956;52.540;13.382;2023-03-23T12:40:47;107937.34;;;16.07
73662;BMP280;61956;52.540;13.382;2023-03-23T12:43:27;108343.84;;;16.11
73662;BMP280;61956;52.540;13.382;2023-03-23T12:46:10;108528.19;;;16.16
73662;BMP280;61956;52.540;13.382;2023-03-23T12:48:53;108569.25;;;16.17
73662;BMP280;61956;52.540;13.382;2023-03-23T12:51:29;108262.19;;;16.17
73662;BMP280;61956;52.540;13.382;2023-03-23T12:54:11;109630.09;;;16.32
73662;BMP280;61956;52.540;13.382;2023-03-23T12:56:50;110623.59;;;16.47
73662;BMP280;61956;52.540;13.382;2023-03-23T12:59:30;111807.19;;;16.72
73662;BMP280;61956;52.540;13.382;2023-03-23T13:02:16;112022.91;;;16.84
73662;BMP280;61956;52.540;13.382;2023-03-23T13:04:52;110938.50;;;16.82
73662;BMP280;61956;52.540;13.382;2023-03-23T13:07:35;109988.78;;;16.75
73662;BMP280;61956;52.540;13.382;2023-03-23T13:10:19;109352.19;;;16.69
73662;BMP280;61956;52.540;13.382;2023-03-23T13:12:53;107890.97;;;16.52
73662;BMP280;61956;52.540;13.382;2023-03-23T13:15:31;108161.66;;;16.48
73662;BMP280;61956;52.540;13.382;2023-03-23T13:18:10;110053.81;;;16.67
73662;BMP280;61956;52.540;13.382;2023-03-23T13:20:55;110429.38;;;16.79
73662;BMP280;61956;52.540;13.382;2023-03-23T13:23:36;108549.38;;;16.65
73662;BMP280;61956;52.540;13.382;2023-03-23T13:26:13;109249.63;;;16.70
73662;BMP280;61956;52.540;13.382;2023-03-23T13:28:58;110155.16;;;16.79
73662;BMP280;61956;52.540;13.382;2023-03-23T13:31:31;109828.25;;;16.81
73662;BMP280;61956;52.540;13.382;2023-03-23T13:34:10;109653.00;;;16.83
73662;BMP280;61956;52.540;13.382;2023-03-23T13:36:53;109600.34;;;16.85
73662;BMP280;61956;52.540;13.382;2023-03-23T13:39:27;111318.72;;;17.06
73662;BMP280;61956;52.540;13.382;2023-03-23T13:42:05;110617.34;;;17.05
73662;BMP280;61956;52.540;13.382;2023-03-23T13:45:05;112607.50;;;17.33
73662;BMP280;61956;52.540;13.382;2023-03-23T13:47:47;112013.38;;;17.38
73662;BMP280;61956;52.540;13.382;2023-03-23T13:50:26;110417.03;;;17.22
73662;BMP280;61956;52.540;13.382;2023-03-23T13:52:59;111187.78;;;17.31
73662;BMP280;61956;52.540;13.382;2023-03-23T13:55:39;110734.31;;;17.32
73662;BMP280;61956;52.540;13.382;2023-03-23T13:58:22;111619.38;;;17.45
73662;BMP280;61956;52.540;13.382;2023-03-23T14:01:11;110906.03;;;17.43
73662;BMP280;61956;52.540;13.382;2023-03-23T14:03:46;110351.75;;;17.39
73662;BMP280;61956;52.540;13.382;2023-03-23T14:06:22;111813.28;;;17.53
73662;BMP280;61956;52.540;13.382;2023-03-23T14:09:06;112821.41;;;17.76
73662;BMP280;61956;52.540;13.382;2023-03-23T14:11:48;113494.69;;;17.95
73662;BMP280;61956;52.540;13.382;2023-03-23T14:14:30;112333.13;;;17.92
73662;BMP280;61956;52.540;13.382;2023-03-23T14:17:14;110248.97;;;17.76
73662;BMP280;61956;52.540;13.382;2023-03-23T14:19:48;110201.75;;;17.70
73662;BMP280;61956;52.540;13.382;2023-03-23T14:22:25;109680.06;;;17.60
73662;BMP280;61956;52.540;13.382;2023-03-23T14:25:03;111311.00;;;17.77
73662;BMP280;61956;52.540;13.382;2023-03-23T14:27:40;110893.16;;;17.77
73662;BMP280;61956;52.540;13.382;2023-03-23T14:30:19;110540.38;;;17.76
73662;BMP280;61956;52.540;13.382;2023-03-23T14:32:51;111230.19;;;17.83
73662;BMP280;61956;52.540;13.382;2023-03-23T14:35:25;109704.09;;;17.75
73662;BMP280;61956;52.540;13.382;2023-03-23T14:37:56;108385.88;;;17.56
73662;BMP280;61956;52.540;13.382;2023-03-23T14:40:28;106690.19;;;17.32
73662;BMP280;61956;52.540;13.382;2023-03-23T14:42:59;106871.28;;;17.24
73662;BMP280;61956;52.540;13.382;2023-03-23T14:45:31;106619.69;;;17.16
73662;BMP280;61956;52.540;13.382;2023-03-23T14:48:02;107030.34;;;17.17
73662;BMP280;61956;52.540;13.382;2023-03-23T14:50:38;106363.06;;;17.07
73662;BMP280;61956;52.540;13.382;2023-03-23T14:53:15;106134.47;;;16.99
73662;BMP280;61956;52.540;13.382;2023-03-23T14:55:48;106041.19;;;16.95
73662;BMP280;61956;52.540;13.382;2023-03-23T14:58:22;107118.38;;;17.00